Terminal Aerodrome Forecast
Issued by NWS Cleveland, OH

Home | Current Version | Previous Version | Text Only | Print | Product List | Glossary Off
Versions: 1 2 3 4 5 6 7 8 9 10 11 12 13 14 15 16 17 18 19 20 21 22

000
FTUS41 KCLE 130300 AAA
TAFERI
TAF AMD
KERI 130300Z 1303/1324 29018G28KT 4SM -SHSN BKN035
      TEMPO 1303/1305 1/2SM SHSN OVC015
     FM130500 29018G28KT 1SM -SHSN OVC020
      TEMPO 1305/1308 1/4SM +SHSN OVC007
     FM131200 28015G25KT 3SM -SHSN OVC025=

USA.gov is the U.S. government's official web portal to all federal, state and local government web resources and services.